sensor_id;sensor_type;location;lat;lon;timestamp;P1;durP1;ratioP1;P2;durP2;ratioP2
52530;SDS011;38441;52.894;6.040;2023-06-19T00:00:53;10.18;;;6.22;;
52530;SDS011;38441;52.894;6.040;2023-06-19T00:03:19;8.93;;;6.15;;
52530;SDS011;38441;52.894;6.040;2023-06-19T00:05:45;6.72;;;6.00;;
52530;SDS011;38441;52.894;6.040;2023-06-19T00:08:10;7.40;;;6.18;;
52530;SDS011;38441;52.894;6.040;2023-06-19T00:10:36;9.65;;;6.40;;
52530;SDS011;38441;52.894;6.040;2023-06-19T00:13:02;7.57;;;6.20;;
52530;SDS011;38441;52.894;6.040;2023-06-19T00:15:28;7.63;;;5.63;;
52530;SDS011;38441;52.894;6.040;2023-06-19T00:17:55;9.35;;;5.95;;
52530;SDS011;38441;52.894;6.040;2023-06-19T00:20:24;8.82;;;5.97;;
52530;SDS011;38441;52.894;6.040;2023-06-19T00:22:50;7.32;;;6.50;;
52530;SDS011;38441;52.894;6.040;2023-06-19T00:25:17;8.73;;;6.05;;
52530;SDS011;38441;52.894;6.040;2023-06-19T00:27:44;7.47;;;5.38;;
52530;SDS011;38441;52.894;6.040;2023-06-19T00:30:11;9.50;;;6.07;;
52530;SDS011;38441;52.894;6.040;2023-06-19T00:32:37;8.80;;;6.28;;
52530;SDS011;38441;52.894;6.040;2023-06-19T00:35:12;7.63;;;6.07;;
52530;SDS011;38441;52.894;6.040;2023-06-19T00:37:39;7.22;;;5.80;;
52530;SDS011;38441;52.894;6.040;2023-06-19T00:40:10;8.70;;;5.33;;
52530;SDS011;38441;52.894;6.040;2023-06-19T00:43:10;10.63;;;5.82;;
52530;SDS011;38441;52.894;6.040;2023-06-19T00:45:36;8.55;;;5.90;;
52530;SDS011;38441;52.894;6.040;2023-06-19T00:48:02;6.78;;;5.60;;
52530;SDS011;38441;52.894;6.040;2023-06-19T00:50:29;8.73;;;6.10;;
52530;SDS011;38441;52.894;6.040;2023-06-19T00:52:56;10.63;;;6.05;;
52530;SDS011;38441;52.894;6.040;2023-06-19T00:55:23;7.38;;;5.50;;
52530;SDS011;38441;52.894;6.040;2023-06-19T00:57:53;6.93;;;5.90;;
52530;SDS011;38441;52.894;6.040;2023-06-19T01:00:19;7.50;;;5.38;;
52530;SDS011;38441;52.894;6.040;2023-06-19T01:02:45;8.55;;;6.15;;
52530;SDS011;38441;52.894;6.040;2023-06-19T01:05:12;9.45;;;5.95;;
52530;SDS011;38441;52.894;6.040;2023-06-19T01:10:28;10.30;;;5.63;;
52530;SDS011;38441;52.894;6.040;2023-06-19T01:15:34;7.45;;;5.32;;
52530;SDS011;38441;52.894;6.040;2023-06-19T01:18:00;9.80;;;5.93;;
52530;SDS011;38441;52.894;6.040;2023-06-19T01:20:28;12.02;;;6.35;;
52530;SDS011;38441;52.894;6.040;2023-06-19T01:22:56;8.23;;;5.28;;
52530;SDS011;38441;52.894;6.040;2023-06-19T01:25:23;7.38;;;5.85;;
52530;SDS011;38441;52.894;6.040;2023-06-19T01:27:49;8.82;;;5.78;;
52530;SDS011;38441;52.894;6.040;2023-06-19T01:30:15;8.82;;;6.43;;
52530;SDS011;38441;52.894;6.040;2023-06-19T01:32:50;8.15;;;5.50;;
52530;SDS011;38441;52.894;6.040;2023-06-19T01:35:23;8.90;;;5.93;;
52530;SDS011;38441;52.894;6.040;2023-06-19T01:37:52;7.53;;;5.88;;
52530;SDS011;38441;52.894;6.040;2023-06-19T01:40:19;7.50;;;5.60;;
52530;SDS011;38441;52.894;6.040;2023-06-19T01:42:51;7.40;;;5.90;;
52530;SDS011;38441;52.894;6.040;2023-06-19T01:45:18;7.95;;;5.78;;
52530;SDS011;38441;52.894;6.040;2023-06-19T01:47:44;9.77;;;6.07;;
52530;SDS011;38441;52.894;6.040;2023-06-19T01:50:10;8.85;;;5.65;;
52530;SDS011;38441;52.894;6.040;2023-06-19T01:52:37;7.53;;;5.65;;
52530;SDS011;38441;52.894;6.040;2023-06-19T01:55:04;9.40;;;6.13;;
52530;SDS011;38441;52.894;6.040;2023-06-19T01:57:30;7.90;;;6.03;;
52530;SDS011;38441;52.894;6.040;2023-06-19T01:59:57;7.50;;;5.70;;
52530;SDS011;38441;52.894;6.040;2023-06-19T02:02:22;8.45;;;5.70;;
52530;SDS011;38441;52.894;6.040;2023-06-19T02:04:54;8.35;;;5.57;;
52530;SDS011;38441;52.894;6.040;2023-06-19T02:07:20;7.70;;;5.72;;
52530;SDS011;38441;52.894;6.040;2023-06-19T02:09:46;7.32;;;5.43;;
52530;SDS011;38441;52.894;6.040;2023-06-19T02:12:11;6.85;;;5.43;;
52530;SDS011;38441;52.894;6.040;2023-06-19T02:14:37;8.82;;;5.38;;
52530;SDS011;38441;52.894;6.040;2023-06-19T02:17:03;7.55;;;5.53;;
52530;SDS011;38441;52.894;6.040;2023-06-19T02:19:29;8.07;;;5.93;;
52530;SDS011;38441;52.894;6.040;2023-06-19T02:21:55;7.70;;;5.88;;
52530;SDS011;38441;52.894;6.040;2023-06-19T02:24:21;9.45;;;6.10;;
52530;SDS011;38441;52.894;6.040;2023-06-19T02:26:47;8.75;;;6.15;;
52530;SDS011;38441;52.894;6.040;2023-06-19T02:29:13;10.75;;;6.45;;
52530;SDS011;38441;52.894;6.040;2023-06-19T02:31:40;9.30;;;6.05;;
52530;SDS011;38441;52.894;6.040;2023-06-19T02:34:07;9.20;;;6.78;;
52530;SDS011;38441;52.894;6.040;2023-06-19T02:36:36;8.27;;;6.10;;
52530;SDS011;38441;52.894;6.040;2023-06-19T02:39:07;8.68;;;5.82;;
52530;SDS011;38441;52.894;6.040;2023-06-19T02:41:40;8.55;;;6.00;;
52530;SDS011;38441;52.894;6.040;2023-06-19T02:44:09;7.00;;;5.65;;
52530;SDS011;38441;52.894;6.040;2023-06-19T02:46:47;8.57;;;6.55;;
52530;SDS011;38441;52.894;6.040;2023-06-19T02:49:33;8.27;;;6.05;;
52530;SDS011;38441;52.894;6.040;2023-06-19T02:52:01;8.93;;;6.43;;
52530;SDS011;38441;52.894;6.040;2023-06-19T02:54:34;7.70;;;5.78;;
52530;SDS011;38441;52.894;6.040;2023-06-19T02:57:00;9.52;;;5.90;;
52530;SDS011;38441;52.894;6.040;2023-06-19T02:59:30;8.05;;;6.32;;
52530;SDS011;38441;52.894;6.040;2023-06-19T03:01:56;7.20;;;5.68;;
52530;SDS011;38441;52.894;6.040;2023-06-19T03:04:22;8.90;;;5.95;;
52530;SDS011;38441;52.894;6.040;2023-06-19T03:06:49;6.72;;;5.55;;
52530;SDS011;38441;52.894;6.040;2023-06-19T03:09:26;8.70;;;5.75;;
52530;SDS011;38441;52.894;6.040;2023-06-19T03:11:58;10.52;;;5.80;;
52530;SDS011;38441;52.894;6.040;2023-06-19T03:14:26;6.68;;;5.53;;
52530;SDS011;38441;52.894;6.040;2023-06-19T03:16:52;7.78;;;5.30;;
52530;SDS011;38441;52.894;6.040;2023-06-19T03:19:18;8.23;;;5.38;;
52530;SDS011;38441;52.894;6.040;2023-06-19T03:21:44;6.57;;;4.70;;
52530;SDS011;38441;52.894;6.040;2023-06-19T03:24:09;8.13;;;4.32;;
52530;SDS011;38441;52.894;6.040;2023-06-19T03:26:35;7.82;;;4.75;;
52530;SDS011;38441;52.894;6.040;2023-06-19T03:29:01;6.25;;;4.35;;
52530;SDS011;38441;52.894;6.040;2023-06-19T03:31:26;6.75;;;4.45;;
52530;SDS011;38441;52.894;6.040;2023-06-19T03:33:52;5.38;;;4.18;;
52530;SDS011;38441;52.894;6.040;2023-06-19T03:36:18;7.00;;;3.92;;
52530;SDS011;38441;52.894;6.040;2023-06-19T03:38:46;6.40;;;4.15;;
52530;SDS011;38441;52.894;6.040;2023-06-19T03:41:13;6.97;;;4.03;;
52530;SDS011;38441;52.894;6.040;2023-06-19T03:43:42;5.40;;;3.75;;
52530;SDS011;38441;52.894;6.040;2023-06-19T03:46:08;5.93;;;3.75;;
52530;SDS011;38441;52.894;6.040;2023-06-19T03:48:34;4.95;;;3.05;;
52530;SDS011;38441;52.894;6.040;2023-06-19T03:51:00;7.65;;;3.55;;
52530;SDS011;38441;52.894;6.040;2023-06-19T03:53:26;4.10;;;2.67;;
52530;SDS011;38441;52.894;6.040;2023-06-19T03:55:51;7.00;;;2.95;;
52530;SDS011;38441;52.894;6.040;2023-06-19T03:58:17;4.25;;;2.67;;
52530;SDS011;38441;52.894;6.040;2023-06-19T04:00:42;4.53;;;2.10;;
52530;SDS011;38441;52.894;6.040;2023-06-19T04:03:09;3.47;;;2.22;;
52530;SDS011;38441;52.894;6.040;2023-06-19T04:05:35;3.33;;;2.05;;
52530;SDS011;38441;52.894;6.040;2023-06-19T04:08:01;4.30;;;2.50;;
52530;SDS011;38441;52.894;6.040;2023-06-19T04:10:29;2.95;;;1.88;;
52530;SDS011;38441;52.894;6.040;2023-06-19T04:12:55;3.60;;;2.00;;
52530;SDS011;38441;52.894;6.040;2023-06-19T04:15:23;3.00;;;1.95;;
52530;SDS011;38441;52.894;6.040;2023-06-19T04:17:52;4.18;;;2.03;;
52530;SDS011;38441;52.894;6.040;2023-06-19T04:20:19;3.92;;;2.20;;
52530;SDS011;38441;52.894;6.040;2023-06-19T04:22:45;4.43;;;2.72;;
52530;SDS011;38441;52.894;6.040;2023-06-19T04:25:12;3.90;;;2.33;;
52530;SDS011;38441;52.894;6.040;2023-06-19T04:27:39;4.95;;;2.53;;
52530;SDS011;38441;52.894;6.040;2023-06-19T04:30:05;4.18;;;2.60;;
52530;SDS011;38441;52.894;6.040;2023-06-19T04:32:33;5.20;;;2.78;;
52530;SDS011;38441;52.894;6.040;2023-06-19T04:35:14;4.50;;;2.83;;
52530;SDS011;38441;52.894;6.040;2023-06-19T04:37:45;5.72;;;2.55;;
52530;SDS011;38441;52.894;6.040;2023-06-19T04:40:16;5.45;;;2.53;;
52530;SDS011;38441;52.894;6.040;2023-06-19T04:42:45;6.05;;;2.70;;
52530;SDS011;38441;52.894;6.040;2023-06-19T04:45:21;4.88;;;3.05;;
52530;SDS011;38441;52.894;6.040;2023-06-19T04:47:49;4.20;;;3.10;;
52530;SDS011;38441;52.894;6.040;2023-06-19T04:50:15;4.75;;;3.10;;
52530;SDS011;38441;52.894;6.040;2023-06-19T04:52:41;7.57;;;3.30;;
52530;SDS011;38441;52.894;6.040;2023-06-19T04:55:44;3.90;;;2.67;;
52530;SDS011;38441;52.894;6.040;2023-06-19T04:58:14;5.00;;;2.90;;
52530;SDS011;38441;52.894;6.040;2023-06-19T05:00:50;4.72;;;3.10;;
52530;SDS011;38441;52.894;6.040;2023-06-19T05:03:20;4.20;;;2.60;;
52530;SDS011;38441;52.894;6.040;2023-06-19T05:05:47;6.32;;;3.13;;
52530;SDS011;38441;52.894;6.040;2023-06-19T05:09:02;5.75;;;4.35;;
52530;SDS011;38441;52.894;6.040;2023-06-19T05:11:30;8.60;;;4.38;;
52530;SDS011;38441;52.894;6.040;2023-06-19T05:13:56;6.70;;;4.72;;
52530;SDS011;38441;52.894;6.040;2023-06-19T05:16:22;6.43;;;4.57;;
52530;SDS011;38441;52.894;6.040;2023-06-19T05:18:48;8.45;;;5.38;;
52530;SDS011;38441;52.894;6.040;2023-06-19T05:21:14;7.40;;;5.03;;
52530;SDS011;38441;52.894;6.040;2023-06-19T05:23:40;7.30;;;5.22;;
52530;SDS011;38441;52.894;6.040;2023-06-19T05:26:09;7.70;;;4.97;;
52530;SDS011;38441;52.894;6.040;2023-06-19T05:28:35;8.07;;;5.90;;
52530;SDS011;38441;52.894;6.040;2023-06-19T05:31:01;8.77;;;6.03;;
52530;SDS011;38441;52.894;6.040;2023-06-19T05:33:29;7.75;;;6.50;;
52530;SDS011;38441;52.894;6.040;2023-06-19T05:35:55;9.00;;;6.72;;
52530;SDS011;38441;52.894;6.040;2023-06-19T05:38:21;9.50;;;8.00;;
52530;SDS011;38441;52.894;6.040;2023-06-19T05:40:50;9.15;;;7.65;;
52530;SDS011;38441;52.894;6.040;2023-06-19T05:43:15;9.00;;;7.15;;
52530;SDS011;38441;52.894;6.040;2023-06-19T05:45:41;9.57;;;7.88;;
52530;SDS011;38441;52.894;6.040;2023-06-19T05:48:10;9.52;;;6.60;;
52530;SDS011;38441;52.894;6.040;2023-06-19T05:50:37;8.20;;;6.05;;
52530;SDS011;38441;52.894;6.040;2023-06-19T05:53:03;8.82;;;5.10;;
52530;SDS011;38441;52.894;6.040;2023-06-19T05:55:29;5.53;;;4.45;;
52530;SDS011;38441;52.894;6.040;2023-06-19T05:57:55;5.13;;;3.70;;
52530;SDS011;38441;52.894;6.040;2023-06-19T06:00:21;4.93;;;3.70;;
52530;SDS011;38441;52.894;6.040;2023-06-19T06:02:49;6.10;;;4.03;;
52530;SDS011;38441;52.894;6.040;2023-06-19T06:05:19;5.90;;;4.07;;
52530;SDS011;38441;52.894;6.040;2023-06-19T06:07:46;7.53;;;4.55;;
52530;SDS011;38441;52.894;6.040;2023-06-19T06:10:13;6.20;;;4.72;;
52530;SDS011;38441;52.894;6.040;2023-06-19T06:12:40;6.43;;;4.80;;
52530;SDS011;38441;52.894;6.040;2023-06-19T06:15:06;6.18;;;5.50;;
52530;SDS011;38441;52.894;6.040;2023-06-19T06:17:32;7.68;;;6.03;;
52530;SDS011;38441;52.894;6.040;2023-06-19T06:20:01;8.07;;;5.63;;
52530;SDS011;38441;52.894;6.040;2023-06-19T06:22:28;6.38;;;5.13;;
52530;SDS011;38441;52.894;6.040;2023-06-19T06:24:55;8.00;;;6.03;;
52530;SDS011;38441;52.894;6.040;2023-06-19T06:27:21;7.53;;;6.68;;
52530;SDS011;38441;52.894;6.040;2023-06-19T06:29:49;9.43;;;7.10;;
52530;SDS011;38441;52.894;6.040;2023-06-19T06:32:15;10.75;;;7.78;;
52530;SDS011;38441;52.894;6.040;2023-06-19T06:34:43;10.57;;;8.18;;
52530;SDS011;38441;52.894;6.040;2023-06-19T06:37:09;10.75;;;9.25;;
52530;SDS011;38441;52.894;6.040;2023-06-19T06:39:37;11.90;;;9.38;;
52530;SDS011;38441;52.894;6.040;2023-06-19T06:42:06;13.88;;;10.60;;
52530;SDS011;38441;52.894;6.040;2023-06-19T06:44:32;13.20;;;10.02;;
52530;SDS011;38441;52.894;6.040;2023-06-19T06:46:58;13.80;;;11.15;;
52530;SDS011;38441;52.894;6.040;2023-06-19T06:49:26;15.95;;;12.00;;
52530;SDS011;38441;52.894;6.040;2023-06-19T06:51:52;18.88;;;13.02;;
52530;SDS011;38441;52.894;6.040;2023-06-19T06:54:18;17.70;;;13.55;;
52530;SDS011;38441;52.894;6.040;2023-06-19T06:56:44;13.38;;;10.70;;
52530;SDS011;38441;52.894;6.040;2023-06-19T06:59:13;15.68;;;12.32;;
52530;SDS011;38441;52.894;6.040;2023-06-19T07:01:41;15.57;;;12.45;;
52530;SDS011;38441;52.894;6.040;2023-06-19T07:04:09;15.20;;;11.38;;
52530;SDS011;38441;52.894;6.040;2023-06-19T07:06:39;13.25;;;10.57;;
52530;SDS011;38441;52.894;6.040;2023-06-19T07:09:05;14.27;;;10.52;;
52530;SDS011;38441;52.894;6.040;2023-06-19T07:11:31;16.23;;;10.50;;
52530;SDS011;38441;52.894;6.040;2023-06-19T07:13:57;16.52;;;10.90;;
52530;SDS011;38441;52.894;6.040;2023-06-19T07:16:23;13.27;;;10.60;;
52530;SDS011;38441;52.894;6.040;2023-06-19T07:18:51;16.67;;;11.30;;
52530;SDS011;38441;52.894;6.040;2023-06-19T07:21:18;13.07;;;10.40;;
52530;SDS011;38441;52.894;6.040;2023-06-19T07:23:45;12.88;;;10.20;;
52530;SDS011;38441;52.894;6.040;2023-06-19T07:26:13;13.00;;;9.80;;
52530;SDS011;38441;52.894;6.040;2023-06-19T07:28:48;12.80;;;10.02;;
52530;SDS011;38441;52.894;6.040;2023-06-19T07:31:14;13.68;;;10.45;;
52530;SDS011;38441;52.894;6.040;2023-06-19T07:33:40;11.70;;;8.80;;
52530;SDS011;38441;52.894;6.040;2023-06-19T07:36:06;11.23;;;8.52;;
52530;SDS011;38441;52.894;6.040;2023-06-19T07:38:35;10.82;;;8.50;;
52530;SDS011;38441;52.894;6.040;2023-06-19T07:41:00;11.07;;;8.13;;
52530;SDS011;38441;52.894;6.040;2023-06-19T07:43:26;8.60;;;7.20;;
52530;SDS011;38441;52.894;6.040;2023-06-19T07:45:52;9.70;;;7.43;;
52530;SDS011;38441;52.894;6.040;2023-06-19T07:48:19;10.10;;;7.68;;
52530;SDS011;38441;52.894;6.040;2023-06-19T07:50:45;8.00;;;6.65;;
52530;SDS011;38441;52.894;6.040;2023-06-19T07:53:11;8.93;;;6.60;;
52530;SDS011;38441;52.894;6.040;2023-06-19T07:55:40;9.70;;;7.10;;
52530;SDS011;38441;52.894;6.040;2023-06-19T07:58:06;7.93;;;5.30;;
52530;SDS011;38441;52.894;6.040;2023-06-19T08:00:32;6.80;;;4.78;;
52530;SDS011;38441;52.894;6.040;2023-06-19T08:03:02;4.15;;;3.30;;
52530;SDS011;38441;52.894;6.040;2023-06-19T08:05:29;6.90;;;3.40;;
52530;SDS011;38441;52.894;6.040;2023-06-19T08:07:55;6.18;;;3.45;;
52530;SDS011;38441;52.894;6.040;2023-06-19T08:10:23;6.53;;;2.88;;
52530;SDS011;38441;52.894;6.040;2023-06-19T08:12:49;4.55;;;2.95;;
52530;SDS011;38441;52.894;6.040;2023-06-19T08:15:16;3.72;;;2.15;;
52530;SDS011;38441;52.894;6.040;2023-06-19T08:17:46;10.32;;;2.35;;
52530;SDS011;38441;52.894;6.040;2023-06-19T08:20:12;6.78;;;2.10;;
52530;SDS011;38441;52.894;6.040;2023-06-19T08:22:38;12.38;;;3.50;;
52530;SDS011;38441;52.894;6.040;2023-06-19T08:25:04;4.78;;;3.05;;
52530;SDS011;38441;52.894;6.040;2023-06-19T08:27:32;7.68;;;3.97;;
52530;SDS011;38441;52.894;6.040;2023-06-19T08:30:01;7.57;;;3.80;;
52530;SDS011;38441;52.894;6.040;2023-06-19T08:32:28;8.52;;;4.03;;
52530;SDS011;38441;52.894;6.040;2023-06-19T08:34:59;8.20;;;4.85;;
52530;SDS011;38441;52.894;6.040;2023-06-19T08:37:25;9.27;;;5.13;;
52530;SDS011;38441;52.894;6.040;2023-06-19T08:39:51;9.15;;;5.43;;
52530;SDS011;38441;52.894;6.040;2023-06-19T08:42:17;7.95;;;5.70;;
52530;SDS011;38441;52.894;6.040;2023-06-19T08:44:42;9.30;;;5.70;;
52530;SDS011;38441;52.894;6.040;2023-06-19T08:47:08;8.32;;;6.38;;
52530;SDS011;38441;52.894;6.040;2023-06-19T08:49:35;10.35;;;6.70;;
52530;SDS011;38441;52.894;6.040;2023-06-19T08:52:02;12.63;;;7.90;;
52530;SDS011;38441;52.894;6.040;2023-06-19T08:54:28;11.98;;;7.82;;
52530;SDS011;38441;52.894;6.040;2023-06-19T08:56:54;14.23;;;8.77;;
52530;SDS011;38441;52.894;6.040;2023-06-19T08:59:20;11.20;;;8.70;;
52530;SDS011;38441;52.894;6.040;2023-06-19T09:01:47;12.15;;;9.07;;
52530;SDS011;38441;52.894;6.040;2023-06-19T09:04:18;13.80;;;9.48;;
52530;SDS011;38441;52.894;6.040;2023-06-19T09:06:48;12.18;;;9.25;;
52530;SDS011;38441;52.894;6.040;2023-06-19T09:09:18;12.43;;;9.98;;
52530;SDS011;38441;52.894;6.040;2023-06-19T09:12:02;16.65;;;9.77;;
52530;SDS011;38441;52.894;6.040;2023-06-19T09:14:36;16.05;;;10.02;;
52530;SDS011;38441;52.894;6.040;2023-06-19T09:17:13;13.30;;;9.93;;
52530;SDS011;38441;52.894;6.040;2023-06-19T09:19:52;16.17;;;10.77;;
52530;SDS011;38441;52.894;6.040;2023-06-19T09:22:22;11.90;;;10.60;;
52530;SDS011;38441;52.894;6.040;2023-06-19T09:24:50;14.35;;;9.75;;
52530;SDS011;38441;52.894;6.040;2023-06-19T09:27:16;14.00;;;9.90;;
52530;SDS011;38441;52.894;6.040;2023-06-19T09:29:45;14.93;;;9.48;;
52530;SDS011;38441;52.894;6.040;2023-06-19T09:32:24;10.90;;;9.00;;
52530;SDS011;38441;52.894;6.040;2023-06-19T09:34:53;9.57;;;7.20;;
52530;SDS011;38441;52.894;6.040;2023-06-19T09:37:24;9.63;;;6.10;;
52530;SDS011;38441;52.894;6.040;2023-06-19T09:39:52;10.38;;;6.43;;
52530;SDS011;38441;52.894;6.040;2023-06-19T09:42:24;8.48;;;6.13;;
52530;SDS011;38441;52.894;6.040;2023-06-19T09:44:59;8.32;;;6.03;;
52530;SDS011;38441;52.894;6.040;2023-06-19T09:47:35;8.85;;;6.05;;
52530;SDS011;38441;52.894;6.040;2023-06-19T09:50:06;9.18;;;6.47;;
52530;SDS011;38441;52.894;6.040;2023-06-19T09:52:33;10.60;;;7.40;;
52530;SDS011;38441;52.894;6.040;2023-06-19T09:55:01;9.70;;;6.40;;
52530;SDS011;38441;52.894;6.040;2023-06-19T09:57:29;8.77;;;6.82;;
52530;SDS011;38441;52.894;6.040;2023-06-19T09:59:55;12.27;;;6.72;;
52530;SDS011;38441;52.894;6.040;2023-06-19T10:02:41;12.55;;;6.82;;
52530;SDS011;38441;52.894;6.040;2023-06-19T10:05:12;8.85;;;6.50;;
52530;SDS011;38441;52.894;6.040;2023-06-19T10:07:41;8.77;;;6.82;;
52530;SDS011;38441;52.894;6.040;2023-06-19T10:10:21;9.88;;;7.45;;
52530;SDS011;38441;52.894;6.040;2023-06-19T10:12:50;12.27;;;8.00;;
52530;SDS011;38441;52.894;6.040;2023-06-19T10:15:24;8.98;;;6.95;;
52530;SDS011;38441;52.894;6.040;2023-06-19T10:18:04;11.80;;;6.82;;
52530;SDS011;38441;52.894;6.040;2023-06-19T12:59:23;11.98;;;7.75;;
52530;SDS011;38441;52.894;6.040;2023-06-19T13:01:57;8.43;;;6.53;;
